Time;durP1;ratioP1;P1;durP2;ratioP2;P2;SDS_P1;SDS_P2;PMS_P1;PMS_P2;Temp;Humidity;BMP_temperature;BMP_pressure;BME280_temperature;BME280_humidity;BME280_pressure;Samples;Min_cycle;Max_cycle;Signal;HPM_P1;HPM_P2
2024/01/30 00:00:34;;;;;;;17.63;16.13;;;2.50;99.90;;;;;;5039779;28;20196;-79
2024/01/30 00:03:01;;;;;;;16.57;15.17;;;2.50;99.90;;;;;;5046650;28;20195;-78
2024/01/30 00:05:28;;;;;;;18.17;16.47;;;2.50;99.90;;;;;;5040204;28;20227;-79
2024/01/30 00:07:56;;;;;;;17.20;15.83;;;2.40;99.90;;;;;;5047252;28;20218;-79
2024/01/30 00:10:23;;;;;;;18.57;16.97;;;2.40;99.90;;;;;;5040489;28;20250;-79
2024/01/30 00:12:50;;;;;;;18.20;16.67;;;2.40;99.90;;;;;;5037541;28;20249;-79
2024/01/30 00:15:16;;;;;;;17.90;16.20;;;2.30;99.90;;;;;;5044410;28;20558;-79
2024/01/30 00:17:43;;;;;;;17.37;15.87;;;2.30;99.90;;;;;;5042805;28;20655;-79
2024/01/30 00:20:11;;;;;;;18.30;16.80;;;2.30;99.90;;;;;;5046123;28;20212;-79
2024/01/30 00:22:37;;;;;;;20.03;18.07;;;2.20;99.90;;;;;;5044043;28;20220;-79
2024/01/30 00:25:06;;;;;;;17.67;16.27;;;2.10;99.90;;;;;;5047392;28;20216;-79
2024/01/30 00:27:33;;;;;;;18.60;17.07;;;2.10;99.90;;;;;;5043353;28;20647;-79
2024/01/30 00:30:00;;;;;;;19.20;17.33;;;2.10;99.90;;;;;;5034085;28;20241;-79
2024/01/30 00:32:26;;;;;;;18.13;16.73;;;2.10;99.90;;;;;;5038163;28;20223;-79
2024/01/30 00:34:53;;;;;;;19.43;17.63;;;2.10;99.90;;;;;;5045281;28;20265;-78
2024/01/30 00:37:20;;;;;;;18.67;17.10;;;2.10;99.90;;;;;;5034514;28;20219;-79
2024/01/30 00:39:47;;;;;;;18.30;16.60;;;2.00;99.90;;;;;;5048646;28;20215;-79
2024/01/30 00:42:15;;;;;;;19.20;17.50;;;2.00;99.90;;;;;;5046974;28;20249;-79
2024/01/30 00:44:42;;;;;;;18.90;17.20;;;2.10;99.90;;;;;;5044179;28;20210;-79
2024/01/30 00:47:08;;;;;;;18.63;16.93;;;2.00;99.90;;;;;;5047232;28;20223;-79
2024/01/30 00:49:35;;;;;;;19.20;17.60;;;2.00;99.90;;;;;;5050659;28;20239;-79
2024/01/30 00:52:02;;;;;;;19.77;17.97;;;1.90;99.90;;;;;;5039855;28;20578;-79
2024/01/30 00:54:29;;;;;;;19.70;17.90;;;1.90;99.90;;;;;;5044980;28;20229;-79
2024/01/30 00:56:56;;;;;;;20.63;18.17;;;1.90;99.90;;;;;;5047743;28;20671;-79
2024/01/30 00:59:24;;;;;;;19.67;17.73;;;1.90;99.90;;;;;;5041124;28;20216;-79
2024/01/30 01:01:51;;;;;;;19.37;17.60;;;1.90;99.90;;;;;;5044065;28;20570;-79
2024/01/30 01:04:18;;;;;;;19.77;17.83;;;1.90;99.90;;;;;;5040697;28;20679;-79
2024/01/30 01:06:45;;;;;;;20.50;18.70;;;1.90;99.90;;;;;;5040325;28;20230;-79
2024/01/30 01:09:12;;;;;;;19.73;17.97;;;1.90;99.90;;;;;;5047773;28;20247;-78
2024/01/30 01:11:38;;;;;;;19.80;17.97;;;2.00;99.90;;;;;;5042813;28;20201;-78
2024/01/30 01:14:05;;;;;;;18.97;17.27;;;2.00;99.90;;;;;;5048925;28;20630;-79
2024/01/30 01:16:34;;;;;;;20.83;18.90;;;2.00;99.90;;;;;;5044075;28;20200;-79
2024/01/30 01:19:01;;;;;;;20.97;18.87;;;2.00;99.90;;;;;;5042376;28;20273;-79
2024/01/30 01:21:28;;;;;;;21.90;19.60;;;2.00;99.90;;;;;;5035801;28;20199;-79
2024/01/30 01:23:55;;;;;;;21.70;19.50;;;2.00;99.90;;;;;;5039879;28;20250;-79
2024/01/30 01:26:22;;;;;;;21.53;19.43;;;2.10;99.90;;;;;;5048481;28;20207;-79
2024/01/30 01:28:49;;;;;;;21.20;19.20;;;2.10;99.90;;;;;;5043824;28;20218;-79
2024/01/30 01:31:17;;;;;;;21.07;19.07;;;2.00;99.90;;;;;;5044777;28;20198;-79
2024/01/30 01:33:45;;;;;;;22.00;19.67;;;2.00;99.90;;;;;;5042457;28;20196;-78
2024/01/30 01:36:12;;;;;;;20.30;18.40;;;2.00;99.90;;;;;;5042603;28;20196;-79
2024/01/30 01:38:39;;;;;;;20.57;18.50;;;2.00;99.90;;;;;;5038535;28;20223;-79
2024/01/30 01:41:06;;;;;;;18.53;17.07;;;1.90;99.90;;;;;;5032595;28;20306;-79
2024/01/30 01:43:33;;;;;;;19.77;18.07;;;1.90;99.90;;;;;;5040498;28;20631;-79
2024/01/30 01:46:01;;;;;;;19.63;17.73;;;2.00;99.90;;;;;;5042609;28;20224;-79
2024/01/30 01:48:28;;;;;;;18.00;16.50;;;2.00;99.90;;;;;;5047981;28;20345;-79
2024/01/30 01:50:56;;;;;;;18.57;16.83;;;2.10;99.90;;;;;;5042533;28;20575;-79
2024/01/30 01:53:23;;;;;;;19.53;17.77;;;2.10;99.90;;;;;;5039476;28;20200;-79
2024/01/30 01:55:50;;;;;;;18.97;17.27;;;2.20;99.90;;;;;;5033397;28;20200;-79
2024/01/30 01:58:17;;;;;;;18.70;17.10;;;2.20;99.90;;;;;;5045035;28;20294;-79
2024/01/30 02:00:44;;;;;;;17.90;16.30;;;2.10;99.90;;;;;;5036658;28;20231;-78
2024/01/30 02:03:12;;;;;;;19.33;17.63;;;2.10;99.90;;;;;;5048256;28;20221;-79
2024/01/30 02:05:40;;;;;;;17.80;16.20;;;2.10;99.90;;;;;;5037686;28;20227;-79
2024/01/30 02:08:09;;;;;;;18.47;16.87;;;2.00;99.90;;;;;;5044084;28;20717;-79
2024/01/30 02:10:36;;;;;;;18.03;16.43;;;2.00;99.90;;;;;;5046424;28;20681;-79
2024/01/30 02:13:04;;;;;;;18.03;16.40;;;1.90;99.90;;;;;;5042866;28;20224;-78
2024/01/30 02:15:31;;;;;;;17.57;16.03;;;1.90;99.90;;;;;;5040505;28;20679;-79
2024/01/30 02:17:58;;;;;;;18.00;16.50;;;1.90;99.90;;;;;;5033165;28;20571;-79
2024/01/30 02:20:26;;;;;;;18.83;17.23;;;1.90;99.90;;;;;;5041608;28;20219;-79
2024/01/30 02:22:56;;;;;;;17.70;16.10;;;1.90;99.90;;;;;;5037532;28;20204;-79
2024/01/30 02:25:32;;;;;;;17.90;16.33;;;1.90;99.90;;;;;;5037883;28;20192;-79
2024/01/30 02:27:58;;;;;;;18.13;16.47;;;1.90;99.90;;;;;;5038537;28;20206;-79
2024/01/30 02:30:25;;;;;;;18.13;16.63;;;1.90;99.90;;;;;;5032767;28;20204;-79
2024/01/30 02:32:52;;;;;;;17.70;16.30;;;1.80;99.90;;;;;;5036320;28;20222;-79
2024/01/30 02:35:19;;;;;;;18.30;16.57;;;1.70;99.90;;;;;;5045855;28;20281;-79
2024/01/30 02:37:46;;;;;;;18.97;17.43;;;1.70;99.90;;;;;;5047650;28;20192;-79
2024/01/30 02:40:14;;;;;;;18.97;17.27;;;1.70;99.90;;;;;;5027282;28;20245;-79
2024/01/30 02:42:41;;;;;;;18.07;16.57;;;1.70;99.90;;;;;;5037100;28;20223;-79
2024/01/30 02:45:10;;;;;;;19.23;17.43;;;1.60;99.90;;;;;;5044163;28;20687;-79
2024/01/30 02:47:36;;;;;;;18.90;17.20;;;1.60;99.90;;;;;;5038418;28;20697;-79
2024/01/30 02:50:03;;;;;;;18.37;16.67;;;1.50;99.90;;;;;;5034359;28;20223;-79
2024/01/30 02:52:30;;;;;;;18.17;16.67;;;1.50;99.90;;;;;;5039554;28;20192;-79
2024/01/30 02:54:57;;;;;;;17.83;16.43;;;1.40;99.90;;;;;;5046713;28;20254;-79
2024/01/30 02:57:25;;;;;;;16.77;15.50;;;1.30;99.90;;;;;;5046455;28;20197;-79
2024/01/30 02:59:52;;;;;;;16.90;15.50;;;1.30;99.90;;;;;;5048366;28;20224;-79
2024/01/30 03:02:19;;;;;;;17.03;15.67;;;1.20;99.90;;;;;;5042993;28;20198;-79
2024/01/30 03:04:46;;;;;;;16.30;15.00;;;1.10;99.90;;;;;;5039368;28;20227;-79
2024/01/30 03:07:13;;;;;;;16.67;15.30;;;1.00;99.90;;;;;;5042784;28;20591;-78
2024/01/30 03:09:41;;;;;;;17.63;16.33;;;1.00;99.90;;;;;;5039562;28;20254;-79
2024/01/30 03:12:08;;;;;;;17.20;15.90;;;0.90;99.90;;;;;;5033159;28;20226;-79
2024/01/30 03:14:36;;;;;;;17.50;16.10;;;0.90;99.90;;;;;;5044740;28;20223;-79
2024/01/30 03:17:04;;;;;;;17.33;15.90;;;0.90;99.90;;;;;;5039136;28;20562;-79
2024/01/30 03:19:30;;;;;;;18.20;16.70;;;0.90;99.90;;;;;;5042323;28;20288;-79
2024/01/30 03:21:57;;;;;;;17.63;16.23;;;0.90;99.90;;;;;;5034172;28;20457;-79
2024/01/30 03:24:24;;;;;;;16.87;15.47;;;0.90;99.90;;;;;;5035485;28;20906;-79
2024/01/30 03:26:51;;;;;;;18.20;16.70;;;0.90;99.90;;;;;;5043696;28;20465;-79
2024/01/30 03:29:17;;;;;;;17.10;15.80;;;0.90;99.90;;;;;;5028689;28;20231;-79
2024/01/30 03:31:46;;;;;;;18.27;16.53;;;1.00;99.90;;;;;;5043868;28;20670;-79
2024/01/30 03:34:12;;;;;;;19.37;17.57;;;1.00;99.90;;;;;;5043910;28;20624;-79
2024/01/30 03:36:39;;;;;;;18.10;16.50;;;1.00;99.90;;;;;;5038559;28;20430;-79
2024/01/30 03:39:06;;;;;;;17.27;15.97;;;1.00;99.90;;;;;;5039960;28;20239;-78
2024/01/30 03:41:33;;;;;;;17.20;15.67;;;1.00;99.90;;;;;;5045368;28;20274;-80
2024/01/30 03:44:00;;;;;;;17.70;16.20;;;1.00;99.90;;;;;;5037776;28;20204;-78
2024/01/30 03:46:27;;;;;;;17.90;16.40;;;1.00;99.90;;;;;;5038077;28;20219;-77
2024/01/30 03:48:55;;;;;;;17.40;16.03;;;1.00;99.90;;;;;;5044373;28;20229;-79
2024/01/30 03:51:21;;;;;;;18.17;16.67;;;1.00;99.90;;;;;;5035521;28;20214;-78
2024/01/30 03:53:48;;;;;;;16.97;15.57;;;1.00;99.90;;;;;;5047590;28;20261;-80
2024/01/30 03:56:15;;;;;;;18.00;16.40;;;0.90;99.90;;;;;;5034306;28;20246;-80
2024/01/30 03:58:42;;;;;;;17.23;15.87;;;0.90;99.90;;;;;;5024049;28;20717;-80
2024/01/30 04:01:13;;;;;;;17.80;16.40;;;0.90;99.90;;;;;;5024432;28;20467;-80
2024/01/30 04:03:40;;;;;;;16.83;15.43;;;0.80;99.90;;;;;;5022988;28;20439;-80
2024/01/30 04:06:08;;;;;;;18.03;16.43;;;0.90;99.90;;;;;;5030582;28;20496;-80
2024/01/30 04:08:35;;;;;;;17.67;16.17;;;0.90;99.90;;;;;;5042361;28;20261;-80
2024/01/30 04:11:05;;;;;;;17.37;16.03;;;0.90;99.90;;;;;;5028281;28;20458;-80
2024/01/30 04:13:32;;;;;;;17.00;15.73;;;0.90;99.90;;;;;;5025957;28;20826;-80
2024/01/30 04:16:00;;;;;;;17.03;15.63;;;0.90;99.90;;;;;;5027953;28;20474;-80
2024/01/30 04:18:27;;;;;;;16.10;14.87;;;0.90;99.90;;;;;;5033200;28;20748;-80
2024/01/30 04:20:53;;;;;;;17.70;16.17;;;0.90;99.90;;;;;;5028399;28;20462;-80
2024/01/30 04:23:22;;;;;;;17.07;15.63;;;0.90;99.90;;;;;;5029167;28;20536;-78
2024/01/30 04:25:48;;;;;;;16.87;15.43;;;0.80;99.90;;;;;;5039256;28;20211;-78
2024/01/30 04:28:15;;;;;;;16.50;15.10;;;0.80;99.90;;;;;;5029527;28;20231;-78
2024/01/30 04:30:42;;;;;;;16.50;15.20;;;0.80;99.90;;;;;;5029895;28;20207;-78
2024/01/30 04:33:09;;;;;;;16.40;15.10;;;0.70;99.90;;;;;;5030835;28;20593;-79
2024/01/30 04:35:36;;;;;;;17.40;15.90;;;0.70;99.90;;;;;;5046513;28;20234;-78
2024/01/30 04:38:03;;;;;;;16.97;15.57;;;0.70;99.90;;;;;;5045100;28;20203;-78
2024/01/30 04:40:31;;;;;;;17.00;15.63;;;0.70;99.90;;;;;;5031492;28;20512;-78
2024/01/30 04:42:58;;;;;;;17.13;15.77;;;0.80;99.90;;;;;;5042635;28;20480;-78
2024/01/30 04:45:25;;;;;;;16.80;15.50;;;0.80;99.90;;;;;;5044223;28;20246;-78
2024/01/30 04:47:52;;;;;;;16.03;14.83;;;0.80;99.90;;;;;;5046447;28;20289;-78
2024/01/30 04:50:19;;;;;;;16.93;15.63;;;0.70;99.90;;;;;;5038845;28;20203;-78
2024/01/30 04:52:46;;;;;;;17.70;16.20;;;0.70;99.90;;;;;;5042318;28;20684;-78
2024/01/30 04:55:12;;;;;;;18.80;17.17;;;0.70;99.90;;;;;;5044429;28;20242;-78
2024/01/30 04:57:40;;;;;;;18.13;16.73;;;0.70;99.90;;;;;;5031490;28;20192;-78
2024/01/30 05:00:08;;;;;;;18.77;17.17;;;0.70;99.90;;;;;;5033101;28;20265;-78
2024/01/30 05:02:35;;;;;;;18.47;16.67;;;0.80;99.90;;;;;;5033062;28;20873;-78
2024/01/30 05:05:02;;;;;;;18.70;16.93;;;0.80;99.90;;;;;;5041775;28;20464;-78
2024/01/30 05:07:29;;;;;;;20.03;18.27;;;0.80;99.90;;;;;;5034362;28;20216;-79
2024/01/30 05:09:56;;;;;;;19.63;17.83;;;0.80;99.90;;;;;;5041008;28;20469;-78
2024/01/30 05:12:23;;;;;;;19.77;17.93;;;0.80;99.90;;;;;;5048490;28;20838;-78
2024/01/30 05:14:51;;;;;;;18.53;16.93;;;0.90;99.90;;;;;;5040551;28;20235;-78
2024/01/30 05:17:17;;;;;;;18.37;16.83;;;0.90;99.90;;;;;;5037455;28;20446;-78
2024/01/30 05:19:44;;;;;;;18.43;16.93;;;1.00;99.90;;;;;;5032475;28;20473;-79
2024/01/30 05:22:15;;;;;;;20.07;18.17;;;1.00;99.90;;;;;;5051314;28;20223;-78
2024/01/30 05:24:42;;;;;;;20.97;19.23;;;0.90;99.90;;;;;;5043558;28;20949;-79
2024/01/30 05:27:09;;;;;;;19.90;18.20;;;0.90;99.90;;;;;;5047141;28;20219;-79
2024/01/30 05:29:36;;;;;;;19.67;17.87;;;1.00;99.90;;;;;;5036333;28;20450;-79
2024/01/30 05:32:05;;;;;;;20.57;18.77;;;1.00;99.90;;;;;;5040806;28;20669;-78
2024/01/30 05:34:32;;;;;;;19.77;17.90;;;0.90;99.90;;;;;;5033934;28;20438;-78
2024/01/30 05:36:58;;;;;;;20.67;18.80;;;0.90;99.90;;;;;;5032507;28;20474;-78
2024/01/30 05:39:25;;;;;;;19.40;17.77;;;0.90;99.90;;;;;;5032595;28;20234;-78
2024/01/30 05:41:52;;;;;;;19.83;17.97;;;0.80;99.90;;;;;;5033165;28;20489;-78
2024/01/30 05:44:19;;;;;;;18.50;16.77;;;0.80;99.90;;;;;;5041844;28;20427;-78
2024/01/30 05:46:45;;;;;;;21.10;19.10;;;0.80;99.90;;;;;;5032002;28;20200;-78
2024/01/30 05:49:13;;;;;;;21.33;19.30;;;0.80;99.90;;;;;;5032230;28;20239;-78
2024/01/30 05:51:40;;;;;;;21.43;19.27;;;0.80;99.90;;;;;;5043083;28;20198;-78
2024/01/30 05:54:07;;;;;;;21.13;19.20;;;0.80;99.90;;;;;;5048479;28;20627;-78
2024/01/30 05:56:34;;;;;;;20.33;18.33;;;0.80;99.90;;;;;;5041302;28;20446;-78
2024/01/30 05:59:00;;;;;;;21.50;19.33;;;0.80;99.90;;;;;;5040753;28;20473;-78
2024/01/30 06:01:28;;;;;;;21.27;19.10;;;0.80;99.90;;;;;;5044164;28;20269;-78
2024/01/30 06:03:55;;;;;;;20.43;18.63;;;0.90;99.90;;;;;;5038481;28;20206;-79
2024/01/30 06:06:23;;;;;;;20.50;18.50;;;0.90;99.90;;;;;;5037407;28;20489;-78
2024/01/30 06:08:50;;;;;;;20.83;18.83;;;0.90;99.90;;;;;;5039477;28;20976;-78
2024/01/30 06:11:17;;;;;;;19.07;17.40;;;1.00;99.90;;;;;;5042267;28;20196;-78
2024/01/30 06:13:44;;;;;;;19.17;17.33;;;0.90;99.90;;;;;;5039446;28;20499;-79
2024/01/30 06:16:12;;;;;;;17.87;16.57;;;0.90;99.90;;;;;;5040961;28;20199;-79
2024/01/30 06:18:38;;;;;;;19.60;17.93;;;0.80;99.90;;;;;;5033405;28;20299;-79
2024/01/30 06:21:06;;;;;;;19.90;18.20;;;0.80;99.90;;;;;;5048632;28;20230;-79
2024/01/30 06:23:34;;;;;;;18.60;17.20;;;0.80;99.90;;;;;;5043826;28;20199;-79
2024/01/30 06:26:01;;;;;;;19.07;17.63;;;0.80;99.90;;;;;;5039915;28;20219;-79
2024/01/30 06:28:27;;;;;;;19.93;18.23;;;0.70;99.90;;;;;;5044781;28;20486;-80
2024/01/30 06:30:54;;;;;;;21.00;19.23;;;0.70;99.90;;;;;;5040046;28;20448;-80
2024/01/30 06:33:21;;;;;;;20.40;18.60;;;0.60;99.90;;;;;;5046381;28;20500;-79
2024/01/30 06:35:47;;;;;;;19.30;17.80;;;0.60;99.90;;;;;;5044761;28;20250;-79
2024/01/30 06:38:15;;;;;;;19.83;17.93;;;0.60;99.90;;;;;;5048136;28;20218;-79
2024/01/30 06:40:43;;;;;;;19.27;17.67;;;0.60;99.90;;;;;;5044682;28;20201;-78
2024/01/30 06:43:11;;;;;;;21.17;19.27;;;0.60;99.90;;;;;;5041189;28;20849;-80
2024/01/30 06:45:38;;;;;;;20.33;18.53;;;0.50;99.90;;;;;;5032246;28;20454;-79
2024/01/30 06:48:05;;;;;;;20.80;19.20;;;0.60;99.90;;;;;;5043987;28;20485;-79
2024/01/30 06:50:32;;;;;;;20.43;18.83;;;0.60;99.90;;;;;;5040349;28;20544;-78
2024/01/30 06:52:58;;;;;;;18.93;17.40;;;0.60;99.90;;;;;;5044486;28;20442;-78
2024/01/30 06:55:25;;;;;;;18.37;16.97;;;0.60;99.90;;;;;;5046217;28;20433;-78
2024/01/30 06:57:53;;;;;;;19.27;17.57;;;0.60;99.90;;;;;;5038553;28;20535;-80
2024/01/30 07:00:21;;;;;;;19.70;18.13;;;0.60;99.90;;;;;;5046113;28;20437;-80
2024/01/30 07:02:48;;;;;;;19.33;17.63;;;0.60;99.90;;;;;;5032203;28;20446;-79
2024/01/30 07:05:15;;;;;;;18.80;17.30;;;0.60;99.90;;;;;;5045154;28;20454;-79
2024/01/30 07:07:42;;;;;;;19.30;17.70;;;0.70;99.90;;;;;;5037085;28;20273;-79
2024/01/30 07:10:09;;;;;;;18.93;17.47;;;0.80;99.90;;;;;;5036526;28;20462;-79
2024/01/30 07:12:36;;;;;;;19.10;17.60;;;0.90;99.90;;;;;;5035241;28;20200;-80
2024/01/30 07:15:07;;;;;;;19.20;17.50;;;1.00;99.90;;;;;;5038867;28;20210;-79
2024/01/30 07:17:34;;;;;;;18.37;16.90;;;1.10;99.90;;;;;;5040878;28;20198;-79
2024/01/30 07:20:03;;;;;;;18.30;16.90;;;1.20;99.90;;;;;;5044975;28;20525;-79
2024/01/30 07:22:30;;;;;;;17.87;16.47;;;1.30;99.90;;;;;;5048220;28;20672;-79
2024/01/30 07:24:57;;;;;;;18.10;16.70;;;1.40;99.90;;;;;;5044651;28;20248;-80
2024/01/30 07:27:24;;;;;;;19.63;17.97;;;1.40;99.90;;;;;;5040538;28;20226;-79
2024/01/30 07:29:51;;;;;;;18.70;17.23;;;1.50;99.90;;;;;;5041419;28;20219;-80
2024/01/30 07:32:19;;;;;;;17.60;16.13;;;1.50;99.90;;;;;;5038221;28;20232;-80
2024/01/30 07:34:46;;;;;;;18.97;17.27;;;1.60;99.90;;;;;;5038618;28;20195;-81
2024/01/30 07:37:15;;;;;;;18.63;17.03;;;1.60;99.90;;;;;;5046581;28;20192;-81
2024/01/30 07:39:42;;;;;;;19.10;17.40;;;1.60;99.90;;;;;;5032801;28;20697;-81
2024/01/30 07:42:09;;;;;;;18.80;17.40;;;1.80;99.90;;;;;;5038734;28;20209;-81
2024/01/30 07:44:36;;;;;;;17.53;16.13;;;1.80;99.90;;;;;;5044749;28;20211;-81
2024/01/30 07:47:03;;;;;;;17.30;16.00;;;2.00;99.90;;;;;;5032888;28;20200;-80
2024/01/30 07:49:32;;;;;;;17.07;15.80;;;2.10;99.90;;;;;;5039786;28;20240;-80
2024/01/30 07:51:59;;;;;;;17.00;15.83;;;2.20;99.90;;;;;;5041097;28;20215;-79
2024/01/30 07:54:26;;;;;;;16.83;15.43;;;2.30;99.90;;;;;;5037743;28;20297;-80
2024/01/30 07:56:53;;;;;;;17.20;15.83;;;2.40;99.90;;;;;;5031420;28;20208;-79
2024/01/30 07:59:22;;;;;;;17.60;16.23;;;2.60;99.90;;;;;;5037756;28;20216;-80
2024/01/30 08:01:49;;;;;;;16.97;15.67;;;2.70;99.90;;;;;;5035953;28;20203;-80
2024/01/30 08:04:15;;;;;;;16.67;15.47;;;2.80;99.90;;;;;;5038763;28;20231;-80
2024/01/30 08:06:43;;;;;;;16.50;15.30;;;2.90;99.90;;;;;;5041279;28;20211;-79
2024/01/30 08:09:10;;;;;;;16.63;15.43;;;3.00;99.90;;;;;;5027780;28;20221;-80
2024/01/30 08:11:40;;;;;;;16.93;15.53;;;3.10;99.90;;;;;;5040375;28;20254;-81
2024/01/30 08:14:07;;;;;;;16.50;15.30;;;3.30;99.90;;;;;;5040351;28;20222;-80
2024/01/30 08:16:33;;;;;;;16.43;15.23;;;3.30;99.90;;;;;;5041047;28;20252;-79
2024/01/30 08:19:01;;;;;;;17.03;15.63;;;3.50;99.90;;;;;;5036767;28;20249;-79
2024/01/30 08:21:28;;;;;;;18.13;16.60;;;3.60;99.90;;;;;;5038129;28;20285;-80
2024/01/30 08:23:56;;;;;;;17.17;15.87;;;3.80;99.90;;;;;;5032582;28;20674;-80
2024/01/30 08:26:22;;;;;;;17.30;15.90;;;4.00;99.90;;;;;;5029056;28;20201;-80
2024/01/30 08:28:50;;;;;;;17.27;15.97;;;4.30;99.90;;;;;;5036643;28;20270;-79
2024/01/30 08:31:17;;;;;;;16.73;15.43;;;4.70;99.90;;;;;;5035865;28;20209;-79
2024/01/30 08:33:44;;;;;;;16.47;15.17;;;5.00;99.90;;;;;;5036374;28;20215;-79
2024/01/30 08:36:10;;;;;;;16.37;15.20;;;5.30;99.90;;;;;;5041289;28;20207;-78
2024/01/30 08:38:37;;;;;;;16.10;14.90;;;5.70;99.90;;;;;;5044398;28;20226;-79
2024/01/30 08:41:05;;;;;;;15.60;14.40;;;6.00;99.90;;;;;;5039181;28;20214;-79
2024/01/30 08:43:32;;;;;;;15.50;14.40;;;6.20;99.90;;;;;;5044715;28;20253;-79
2024/01/30 08:46:00;;;;;;;15.23;14.13;;;6.40;99.90;;;;;;5041016;28;20211;-80
2024/01/30 08:48:27;;;;;;;15.20;14.17;;;6.60;99.90;;;;;;5030363;28;20273;-79
2024/01/30 08:50:54;;;;;;;15.17;14.07;;;6.80;99.90;;;;;;5047913;28;20206;-79
2024/01/30 08:53:20;;;;;;;15.93;14.67;;;6.90;99.90;;;;;;5034959;28;20228;-79
2024/01/30 08:55:47;;;;;;;15.50;14.40;;;7.10;99.90;;;;;;5033624;28;20200;-79
2024/01/30 08:58:18;;;;;;;15.37;14.07;;;7.30;99.90;;;;;;5043049;28;20328;-79
2024/01/30 09:00:44;;;;;;;15.67;14.33;;;7.40;99.90;;;;;;5042492;28;20226;-79
2024/01/30 09:03:11;;;;;;;14.70;13.50;;;7.30;99.90;;;;;;5045521;28;20615;-79
2024/01/30 09:05:38;;;;;;;15.53;14.30;;;7.20;99.90;;;;;;5034734;28;20230;-79
2024/01/30 09:08:05;;;;;;;15.00;13.87;;;7.20;99.90;;;;;;5045394;28;20224;-79
2024/01/30 09:10:32;;;;;;;15.40;14.30;;;7.20;99.90;;;;;;5034154;28;20199;-80
2024/01/30 09:12:59;;;;;;;15.97;14.60;;;7.20;99.90;;;;;;5051878;28;20227;-80
2024/01/30 09:15:27;;;;;;;15.30;14.10;;;7.20;99.90;;;;;;5040127;28;20196;-80
2024/01/30 09:17:53;;;;;;;15.53;14.33;;;7.10;99.90;;;;;;5029035;28;20226;-80
2024/01/30 09:20:22;;;;;;;14.80;13.70;;;7.20;99.90;;;;;;5033326;28;20702;-80
2024/01/30 09:22:49;;;;;;;15.10;13.83;;;7.10;99.90;;;;;;5033267;28;20645;-80
2024/01/30 09:25:16;;;;;;;14.50;13.40;;;7.10;99.90;;;;;;5038608;28;20195;-79
2024/01/30 09:27:42;;;;;;;15.13;13.93;;;7.10;99.90;;;;;;5041923;28;20254;-78
2024/01/30 09:30:10;;;;;;;15.10;14.07;;;7.10;99.90;;;;;;5039945;28;20229;-81
2024/01/30 09:32:38;;;;;;;15.40;14.13;;;7.20;99.90;;;;;;5039877;28;20623;-81
2024/01/30 09:35:05;;;;;;;15.73;14.40;;;7.30;99.90;;;;;;5042764;28;20321;-81
2024/01/30 09:37:32;;;;;;;15.40;14.20;;;7.40;99.90;;;;;;5042009;28;20196;-81
2024/01/30 09:39:59;;;;;;;14.60;13.50;;;7.50;99.90;;;;;;5037540;28;20247;-82
2024/01/30 09:42:32;;;;;;;15.57;14.33;;;7.50;99.90;;;;;;5034158;28;20204;-79
2024/01/30 09:44:58;;;;;;;14.27;13.27;;;7.70;99.90;;;;;;5040571;28;20191;-79
2024/01/30 09:47:25;;;;;;;14.53;13.43;;;7.80;99.90;;;;;;5040645;28;20223;-79
2024/01/30 09:49:54;;;;;;;13.87;12.87;;;7.80;99.90;;;;;;5041893;28;20270;-77
2024/01/30 09:52:20;;;;;;;14.60;13.37;;;7.90;99.90;;;;;;5039331;28;20739;-79
2024/01/30 09:54:50;;;;;;;13.63;12.73;;;7.90;99.90;;;;;;5043849;28;20230;-79
2024/01/30 09:57:17;;;;;;;14.50;13.40;;;7.90;99.90;;;;;;5040384;28;20246;-78
2024/01/30 09:59:43;;;;;;;14.50;13.40;;;7.90;99.90;;;;;;5037721;28;20638;-79
2024/01/30 10:02:11;;;;;;;13.93;13.00;;;7.90;99.90;;;;;;5032518;28;20294;-78
2024/01/30 10:04:37;;;;;;;14.33;13.23;;;7.90;99.90;;;;;;5047864;28;20625;-78
2024/01/30 10:07:06;;;;;;;14.60;13.50;;;7.90;99.90;;;;;;5041601;28;20239;-79
2024/01/30 10:09:35;;;;;;;14.90;13.80;;;7.90;99.90;;;;;;5040381;28;20219;-79
2024/01/30 10:12:03;;;;;;;15.50;14.30;;;7.80;99.90;;;;;;5036082;28;20654;-78
2024/01/30 10:14:30;;;;;;;15.77;14.50;;;7.70;99.90;;;;;;5048032;28;20203;-79
2024/01/30 10:16:58;;;;;;;14.80;13.70;;;7.80;99.90;;;;;;5036956;28;20250;-80
2024/01/30 10:19:25;;;;;;;15.90;14.60;;;7.80;99.90;;;;;;5033165;28;20216;-82
2024/01/30 10:21:53;;;;;;;15.87;14.53;;;7.70;99.90;;;;;;5044070;28;20571;-82
2024/01/30 10:24:25;;;;;;;15.47;14.10;;;7.70;99.90;;;;;;5041406;28;20569;-80
2024/01/30 10:26:52;;;;;;;15.53;14.23;;;7.70;99.90;;;;;;5041424;28;20221;-80
2024/01/30 10:29:18;;;;;;;15.27;14.07;;;7.70;99.90;;;;;;5032355;28;20247;-80
2024/01/30 10:31:46;;;;;;;15.50;14.20;;;7.70;99.90;;;;;;5037166;28;20188;-80
2024/01/30 10:34:13;;;;;;;15.00;13.87;;;7.80;99.90;;;;;;5037452;28;20230;-79
2024/01/30 10:36:42;;;;;;;15.27;14.07;;;7.80;99.90;;;;;;5048122;28;20203;-80
2024/01/30 10:39:10;;;;;;;15.23;14.00;;;7.80;99.90;;;;;;5040907;28;20208;-80
2024/01/30 10:41:45;;;;;;;15.20;14.10;;;7.90;99.90;;;;;;5037271;28;20203;-79
2024/01/30 10:44:13;;;;;;;14.43;13.33;;;8.00;99.90;;;;;;5041291;28;20203;-80
2024/01/30 10:46:42;;;;;;;15.27;14.07;;;8.00;99.90;;;;;;5038097;28;20187;-80
2024/01/30 10:49:11;;;;;;;14.43;13.33;;;8.10;99.90;;;;;;5044432;28;20629;-80
2024/01/30 10:51:39;;;;;;;15.30;14.03;;;8.20;99.90;;;;;;5040125;28;20207;-79
2024/01/30 10:54:07;;;;;;;14.77;13.67;;;8.30;99.90;;;;;;5035095;28;20196;-80
2024/01/30 10:56:35;;;;;;;14.23;13.13;;;8.30;99.90;;;;;;5040432;28;20199;-80
2024/01/30 10:59:04;;;;;;;14.47;13.37;;;8.40;99.90;;;;;;5034485;28;20242;-79
2024/01/30 11:01:32;;;;;;;15.10;13.73;;;8.50;99.90;;;;;;5039639;28;20208;-80
2024/01/30 11:03:59;;;;;;;15.37;14.07;;;8.50;99.90;;;;;;5042175;28;20196;-79
2024/01/30 11:06:26;;;;;;;14.43;13.33;;;8.60;99.90;;;;;;5039457;28;20220;-80
2024/01/30 11:09:04;;;;;;;14.47;13.47;;;8.70;99.90;;;;;;5043853;28;20777;-80
2024/01/30 11:11:31;;;;;;;14.83;13.73;;;8.90;99.90;;;;;;5034930;28;20269;-80
2024/01/30 11:14:02;;;;;;;16.10;14.80;;;8.90;99.90;;;;;;5042029;28;20289;-80
2024/01/30 11:16:33;;;;;;;16.23;14.87;;;8.90;99.90;;;;;;5048657;28;20274;-80
2024/01/30 11:19:02;;;;;;;16.47;15.20;;;9.00;99.90;;;;;;5045142;28;20216;-80
2024/01/30 11:21:28;;;;;;;16.37;15.07;;;9.10;99.90;;;;;;5049209;28;20309;-80
2024/01/30 11:23:56;;;;;;;16.13;14.83;;;9.20;99.90;;;;;;5038861;28;20244;-80
2024/01/30 11:26:28;;;;;;;15.17;13.87;;;9.30;99.90;;;;;;5036785;28;20195;-80
2024/01/30 11:28:56;;;;;;;14.37;13.27;;;9.40;99.90;;;;;;5048450;28;20227;-80
2024/01/30 11:31:23;;;;;;;14.83;13.63;;;9.50;99.90;;;;;;5044896;28;20586;-80
2024/01/30 11:33:55;;;;;;;15.17;13.87;;;9.60;99.90;;;;;;5040098;28;20226;-80
2024/01/30 11:36:27;;;;;;;13.37;12.37;;;9.70;99.90;;;;;;5044307;28;20617;-80
2024/01/30 11:38:54;;;;;;;14.97;13.47;;;9.80;99.90;;;;;;5041517;28;20280;-80
2024/01/30 11:41:23;;;;;;;14.70;13.50;;;9.90;99.90;;;;;;5043460;28;20686;-80
2024/01/30 11:43:53;;;;;;;14.87;13.63;;;9.90;99.90;;;;;;5043070;28;20204;-80
2024/01/30 11:46:20;;;;;;;14.10;13.00;;;9.90;99.90;;;;;;5049715;28;20305;-80
2024/01/30 11:48:47;;;;;;;13.80;12.80;;;10.00;99.90;;;;;;5025837;28;20663;-80
2024/01/30 11:51:18;;;;;;;13.53;12.53;;;10.00;99.90;;;;;;5043702;28;20718;-79
2024/01/30 11:53:45;;;;;;;14.87;13.77;;;10.00;99.90;;;;;;5041111;28;20404;-79
2024/01/30 11:56:13;;;;;;;15.10;14.07;;;10.10;99.90;;;;;;5043446;28;20207;-80
2024/01/30 11:58:43;;;;;;;14.97;13.77;;;10.20;99.90;;;;;;5045331;28;20305;-80
2024/01/30 12:01:11;;;;;;;14.93;13.77;;;10.20;99.90;;;;;;5034254;28;20205;-80
2024/01/30 12:03:37;;;;;;;14.43;13.33;;;10.30;99.90;;;;;;5043624;28;20194;-77
2024/01/30 12:06:05;;;;;;;14.17;13.07;;;10.40;99.90;;;;;;5033150;28;20207;-76
2024/01/30 12:08:33;;;;;;;13.80;12.90;;;10.50;99.90;;;;;;5052292;28;20279;-79
2024/01/30 12:11:01;;;;;;;13.53;12.43;;;10.60;99.90;;;;;;5047288;28;20207;-77
2024/01/30 12:13:28;;;;;;;13.37;12.23;;;10.70;99.90;;;;;;5039586;28;20203;-78
2024/01/30 12:15:55;;;;;;;12.50;11.60;;;10.70;99.90;;;;;;5044512;28;20198;-77
2024/01/30 12:18:22;;;;;;;14.07;12.73;;;10.80;99.90;;;;;;5045126;28;20254;-78
2024/01/30 12:20:58;;;;;;;12.87;11.83;;;10.80;99.90;;;;;;5035389;28;20202;-77
2024/01/30 12:23:25;;;;;;;12.90;11.90;;;10.80;99.90;;;;;;5046252;28;20209;-77
2024/01/30 12:25:54;;;;;;;12.67;11.63;;;10.90;99.90;;;;;;5044697;28;20293;-81
2024/01/30 12:28:21;;;;;;;13.03;12.03;;;11.00;99.90;;;;;;5050851;28;20242;-77
2024/01/30 12:30:48;;;;;;;13.03;12.13;;;11.00;99.90;;;;;;5043276;28;20218;-79
2024/01/30 12:33:18;;;;;;;14.30;13.10;;;11.00;99.90;;;;;;5045277;28;20199;-80
2024/01/30 12:35:47;;;;;;;13.73;12.63;;;11.00;99.90;;;;;;5043182;28;20277;-80